Main page
METAR-TAF:

METAR-TAF

Airports :

Enrique Malek International Airport

David, Panama

latitude: 08-24N, longitude: 082-25W, elevation: 29 m

Current weather observation

The report was made 48 minutes ago, at 12:00 UTC
Calm wind
Temperature 24°C
Humidity 94%
Pressure 1011 hPa
Visibility 10 km or more
Few clouds at a height of 1500 ft
Scattered clouds at a height of 10000 ft

METAR: MPDA 281200Z 00000KT 9999 FEW015 SCT100 24/23 Q1011 RWY DAMP

Time: 07:48 (12:48 UTC)

Forecast

The report was made 48 minutes ago, at 12:00 UTC
Forecast valid from 28 at 12 UTC to 28 at 24 UTC
Wind 8 kt from the Southwest
Visibility 10 km or more
Scattered clouds at a height of 1800 ft
Temporary
from 28 at 17 UTC to 28 at 21 UTC
Wind 15 kt from the South
Visibility: 6000 m
Scattered clouds at a height of 1500 ft, Cumulonimbus.
Broken clouds at a height of 8000 ft
thunderstorm, rain
Temporary
from 28 at 22 UTC to 28 at 24 UTC

TAF: MPDA 281200Z 2812/2824 22008KT 9999 SCT018 TEMPO 2817/2821 18015KT 6000 TSRA SCT015CB BKN080 TEMPO 2822/2824 NSW

Weather observations and forecasts of more than 4000 airports (METAR and TAF reports).

The available stations are represented by yellow and red dots on the map.

Hover mouse over dot to see the name of the station.

Then click to see weather observations and forecasts.

To change the map : click on the green buttons with a black cross to zoom in, on the green button with a dash to zoom out, or on the green arrows for adjacent maps.


METAR-TAF: